createdAt,value
2019-05-11T07:16:30.286Z,43.2853
2019-05-11T07:16:58.076Z,43.4226
2019-05-11T07:17:06.577Z,43.4348
2019-05-11T07:17:15.074Z,43.3982
2019-05-11T07:17:23.578Z,43.4318
2019-05-11T07:17:32.148Z,43.3814
2019-05-11T07:17:40.900Z,47.2129
2019-05-11T07:17:49.352Z,48.7541
2019-05-11T07:17:57.852Z,43.5874
2019-05-11T07:18:07.394Z,44.0894
2019-05-11T07:18:15.900Z,42.9908
2019-05-11T07:18:24.396Z,42.7115
2019-05-11T07:18:32.903Z,42.8504
2019-05-11T07:18:41.407Z,43.1983
2019-05-11T07:18:49.925Z,43.1830
2019-05-11T07:18:58.424Z,45.0874
2019-05-11T07:19:06.869Z,44.4434
2019-05-11T07:19:15.374Z,54.2062
2019-05-11T07:19:23.864Z,41.5915
2019-05-11T07:19:32.354Z,40.3037
2019-05-11T07:19:40.833Z,40.4410
2019-05-11T07:19:49.340Z,40.9766
2019-05-11T07:19:57.844Z,41.3169
2019-05-11T07:20:25.800Z,41.8097
2019-05-11T07:20:49.116Z,41.8601
2019-05-11T07:20:50.730Z,44.0452
2019-05-11T07:20:59.512Z,42.0798
2019-05-11T07:21:08.015Z,42.1042
2019-05-11T07:21:16.523Z,42.2965
2019-05-11T07:21:25.019Z,42.3377
2019-05-11T07:21:33.551Z,43.2395
2019-05-11T07:21:42.066Z,43.3951
2019-05-11T07:21:50.570Z,51.3466
2019-05-11T07:21:59.064Z,46.6941
2019-05-11T07:22:07.562Z,42.7863
2019-05-11T07:22:16.064Z,41.5671
2019-05-11T07:22:24.551Z,41.7273
2019-05-11T07:22:33.114Z,42.6993
2019-05-11T07:22:41.644Z,43.4867
2019-05-11T07:22:50.146Z,43.6316
2019-05-11T07:22:58.638Z,42.5849
2019-05-11T07:23:07.129Z,42.2965
2019-05-11T07:23:15.629Z,42.2950
2019-05-11T07:23:24.149Z,42.3087
2019-05-11T07:23:32.649Z,42.3178
2019-05-11T07:23:41.215Z,42.4247
2019-05-11T07:23:49.766Z,42.4598
2019-05-11T07:23:58.281Z,42.3957
2019-05-11T07:24:06.799Z,42.5620
2019-05-11T07:24:15.296Z,42.4109
2019-05-11T07:24:23.803Z,42.3880
2019-05-11T07:24:33.608Z,42.9633
2019-05-11T07:24:42.174Z,42.8214
2019-05-11T07:24:50.689Z,42.5605
2019-05-11T07:24:59.186Z,42.6383
2019-05-11T07:25:16.140Z,42.8077
2019-05-11T07:25:24.644Z,42.8183
2019-05-11T07:25:33.142Z,42.8412
2019-05-11T07:25:41.639Z,42.9404
2019-05-11T07:25:50.135Z,45.9495
2019-05-11T07:26:00.245Z,43.6683
2019-05-11T07:26:08.937Z,43.1052
2019-05-11T07:26:25.907Z,43.0930
2019-05-11T07:26:34.406Z,43.1373
2019-05-11T07:26:42.901Z,43.0060
2019-05-11T07:26:51.402Z,43.0884
2019-05-11T07:26:59.951Z,42.8962
2019-05-11T07:27:08.447Z,42.7543
2019-05-11T07:27:25.408Z,42.9679
2019-05-11T07:27:33.911Z,43.0106
2019-05-11T07:27:42.399Z,42.8855
2019-05-11T07:27:50.899Z,42.9603
2019-05-11T07:27:59.380Z,42.9633
2019-05-11T07:28:16.357Z,42.9374
2019-05-11T07:28:24.846Z,42.9603
2019-05-11T07:28:33.351Z,42.9358
2019-05-11T07:28:41.850Z,42.9770
2019-05-11T07:28:50.349Z,43.0289
2019-05-11T07:28:58.847Z,42.9587
2019-05-11T07:29:15.863Z,43.0243
2019-05-11T07:29:24.373Z,43.1342
2019-05-11T07:29:32.873Z,43.1189
2019-05-11T07:29:41.369Z,43.1067
2019-05-11T07:29:49.870Z,43.1327
2019-05-11T07:29:58.367Z,43.1189
2019-05-11T07:30:15.339Z,43.0503
2019-05-11T07:30:23.864Z,43.1327
2019-05-11T07:30:32.360Z,43.1739
2019-05-11T07:30:40.866Z,43.1067
2019-05-11T07:30:49.356Z,43.0823
2019-05-11T07:31:06.324Z,42.9496
2019-05-11T07:31:14.822Z,42.9175
2019-05-11T07:31:23.318Z,42.9603
2019-05-11T07:31:31.829Z,42.9953
2019-05-11T07:31:40.359Z,43.0365
2019-05-11T07:31:48.868Z,43.0610
2019-05-11T07:32:16.476Z,43.1434
2019-05-11T07:32:25.600Z,43.1250
2019-05-11T07:32:34.856Z,43.1418
2019-05-11T07:32:43.365Z,43.1693
2019-05-11T07:32:51.852Z,43.1525
2019-05-11T07:33:01.077Z,43.1235
2019-05-11T07:33:09.715Z,43.1205
2019-05-11T07:33:18.388Z,43.1662
2019-05-11T07:33:28.700Z,43.1250
2019-05-11T07:33:37.997Z,43.1510
2019-05-11T07:33:48.617Z,43.2197
2019-05-11T07:33:58.731Z,43.1785
2019-05-11T07:34:08.117Z,43.2334
2019-05-11T07:34:18.505Z,43.1800
2019-05-11T07:34:27.782Z,43.2059
2019-05-11T07:34:38.360Z,43.1891
2019-05-11T07:34:48.711Z,43.0701
2019-05-11T07:34:57.787Z,43.1113
2019-05-11T07:35:08.445Z,43.1388
2019-05-11T07:35:18.824Z,43.2013
2019-05-11T07:35:27.989Z,43.2151
2019-05-11T07:35:38.499Z,43.1785
2019-05-11T07:35:47.870Z,43.1418
2019-05-11T07:35:58.317Z,43.1846
2019-05-11T07:36:08.444Z,43.0640
2019-05-11T07:36:17.745Z,42.8992
2019-05-11T07:36:28.218Z,42.9282
2019-05-11T07:36:38.782Z,42.9679
2019-05-11T07:36:47.725Z,43.0777
2019-05-11T07:36:57.657Z,43.0457
2019-05-11T07:37:08.205Z,43.0594
2019-05-11T07:37:18.537Z,43.1022
2019-05-11T07:37:28.021Z,43.0594
2019-05-11T07:37:38.565Z,43.0457
2019-05-11T07:37:47.998Z,43.0320
2019-05-11T07:37:58.164Z,42.9541
2019-05-11T07:38:08.304Z,42.9450
2019-05-11T07:38:18.339Z,42.9267
2019-05-11T07:38:27.835Z,42.9923
2019-05-11T07:38:38.160Z,43.0747
2019-05-11T07:38:48.739Z,43.1235
2019-05-11T07:38:58.012Z,43.1510
2019-05-11T07:39:08.319Z,43.0869
2019-05-11T07:39:18.689Z,43.0564
2019-05-11T07:39:27.947Z,43.1006
2019-05-11T07:39:38.354Z,43.1113
2019-05-11T07:39:48.765Z,43.0976
2019-05-11T07:39:58.027Z,43.0976
2019-05-11T07:40:08.215Z,43.1235
2019-05-11T07:40:18.766Z,43.0701
2019-05-11T07:40:27.986Z,43.1510
2019-05-11T07:40:38.476Z,43.1342
2019-05-11T07:40:47.669Z,43.1098
2019-05-11T07:40:58.244Z,42.9923
2019-05-11T07:41:08.777Z,43.0060
2019-05-11T07:41:17.686Z,43.1373
2019-05-11T07:41:28.105Z,43.2303
2019-05-11T07:41:38.677Z,43.1342
2019-05-11T07:41:47.964Z,43.1113
2019-05-11T07:41:58.421Z,43.1830
2019-05-11T07:42:07.757Z,43.1785
2019-05-11T07:42:18.050Z,43.1098
2019-05-11T07:42:28.577Z,43.1098
2019-05-11T07:42:37.953Z,43.0701
2019-05-11T07:42:48.568Z,43.0182
2019-05-11T07:42:58.943Z,43.0869
2019-05-11T07:43:09.894Z,43.0869
2019-05-11T07:43:18.977Z,43.0961
2019-05-11T07:43:28.746Z,43.1647
2019-05-11T07:43:38.014Z,43.1067
2019-05-11T07:43:48.442Z,43.0686
2019-05-11T07:43:58.998Z,43.2059
2019-05-11T07:44:09.954Z,43.1830
2019-05-11T07:44:19.174Z,43.1510
2019-05-11T07:44:37.835Z,43.0701
2019-05-11T07:44:48.203Z,43.0045
2019-05-11T07:44:58.261Z,42.9419
2019-05-11T07:45:08.850Z,43.0335
2019-05-11T07:45:18.141Z,43.0472
2019-05-11T07:45:28.296Z,43.0472
2019-05-11T07:45:38.681Z,42.9648
2019-05-11T07:45:47.987Z,43.1144
2019-05-11T07:45:58.438Z,43.0564
2019-05-11T07:46:07.817Z,43.0564
2019-05-11T07:46:18.178Z,43.0060
2019-05-11T07:46:28.773Z,42.9221
2019-05-11T07:46:37.785Z,42.9999
2019-05-11T07:46:48.293Z,42.9129
2019-05-11T07:46:58.691Z,42.9465
2019-05-11T07:47:07.964Z,42.9267
2019-05-11T07:47:18.713Z,43.2975
2019-05-11T07:47:27.894Z,42.8534
2019-05-11T07:47:37.929Z,42.8351
2019-05-11T07:47:48.554Z,42.8077
2019-05-11T07:47:59.012Z,42.8321
2019-05-11T07:48:08.089Z,42.7680
2019-05-11T07:48:18.684Z,42.8580
2019-05-11T07:48:27.839Z,42.9221
2019-05-11T07:48:38.599Z,42.8779
2019-05-11T07:48:47.913Z,42.9099
2019-05-11T07:48:58.434Z,42.8687
2019-05-11T07:49:08.735Z,42.8443
2019-05-11T07:49:17.952Z,44.8173
2019-05-11T07:49:29.001Z,42.8183
2019-05-11T07:49:39.625Z,42.7161
2019-05-11T07:49:50.077Z,42.3606
2019-05-11T07:49:59.530Z,42.5528
2019-05-11T07:50:08.333Z,42.6581
2019-05-11T07:50:18.121Z,43.7110
2019-05-11T07:50:28.382Z,44.4343
2019-05-11T07:50:38.716Z,44.2191
2019-05-11T07:50:47.921Z,42.1866
2019-05-11T07:50:58.465Z,42.0996
2019-05-11T07:51:30.415Z,41.4588
2019-05-11T07:51:39.104Z,41.6236
2019-05-11T07:51:48.114Z,41.4710
2019-05-11T07:51:58.658Z,41.6785
2019-05-11T07:52:07.837Z,42.3972
2019-05-11T07:52:18.162Z,42.2232
2019-05-11T07:52:28.781Z,41.7838
2019-05-11T07:52:37.954Z,41.8845
2019-05-11T07:52:48.314Z,41.5183
2019-05-11T07:52:58.898Z,41.5579
2019-05-11T07:53:08.214Z,43.2837
2019-05-11T07:53:18.610Z,43.1785
2019-05-11T07:53:27.896Z,42.9007
2019-05-11T07:53:38.088Z,48.7129
2019-05-11T07:53:48.684Z,41.8204
2019-05-11T07:53:57.805Z,40.3830
2019-05-11T07:54:08.443Z,41.0651
2019-05-11T07:54:18.728Z,40.9781
2019-05-11T07:54:28.078Z,40.9873
2019-05-11T07:54:38.549Z,41.3016
2019-05-11T07:54:52.036Z,41.3474
2019-05-11T07:55:01.485Z,41.8647
2019-05-11T07:55:09.928Z,41.9120
2019-05-11T07:55:18.960Z,41.9745
2019-05-11T07:55:28.322Z,41.5137
2019-05-11T07:55:38.496Z,43.1571
2019-05-11T07:55:48.455Z,51.5831
2019-05-11T07:55:57.770Z,44.9378
2019-05-11T07:56:08.265Z,39.5544
2019-05-11T07:56:18.752Z,42.3774
2019-05-11T07:56:28.482Z,41.5534
2019-05-11T07:56:39.099Z,41.0864
2019-05-11T08:36:51.826Z,44.3366
2019-05-11T08:37:00.241Z,44.2771
2019-05-11T08:37:08.920Z,44.2634
2019-05-11T08:37:18.922Z,44.2267
2019-05-11T08:37:28.397Z,44.1917
2019-05-11T08:37:38.754Z,44.1444
2019-05-11T08:37:47.986Z,44.1077
2019-05-11T08:37:58.155Z,44.0436
2019-05-11T08:38:08.821Z,44.0314
2019-05-11T08:38:18.045Z,44.0040
2019-05-11T08:38:28.566Z,44.0070
2019-05-11T08:38:37.820Z,44.0543
2019-05-11T08:38:48.254Z,44.0253
2019-05-11T08:38:58.573Z,44.0253
2019-05-11T08:39:07.872Z,44.0345
2019-05-11T08:39:18.194Z,44.0436
2019-05-11T08:39:28.821Z,44.0772
2019-05-11T08:39:37.940Z,44.0620
2019-05-11T08:39:48.192Z,44.1230
2019-05-11T08:39:58.516Z,44.1169
2019-05-11T08:40:07.832Z,44.1123
2019-05-11T08:40:18.275Z,44.1779
2019-05-11T08:40:28.920Z,44.1825
2019-05-11T08:40:38.003Z,44.2283
2019-05-11T08:40:48.444Z,44.2359
2019-05-11T08:40:58.993Z,44.2359
2019-05-11T08:41:08.180Z,44.2908
2019-05-11T08:41:18.417Z,44.3458
2019-05-11T08:41:27.942Z,44.3702
2019-05-11T08:41:38.393Z,44.4114
2019-05-11T08:41:48.765Z,44.4160
2019-05-11T08:41:58.946Z,44.4694
2019-05-11T08:42:08.774Z,44.4709
2019-05-11T08:42:17.911Z,44.5563
2019-05-11T08:42:28.648Z,44.5151
2019-05-11T08:42:37.977Z,44.5518
2019-05-11T08:42:48.188Z,44.5426
2019-05-11T08:42:58.298Z,44.5899
2019-05-11T08:43:08.815Z,44.5808
2019-05-11T08:43:17.945Z,44.5747
2019-05-11T08:43:28.567Z,44.6036
2019-05-11T08:43:38.855Z,44.6067
2019-05-11T08:43:48.042Z,44.5808
2019-05-11T08:43:58.741Z,44.5884
2019-05-11T08:44:08.945Z,44.6113
2019-05-11T08:44:18.163Z,44.6296
2019-05-11T08:44:28.771Z,44.6204
2019-05-11T08:44:38.015Z,44.6082
2019-05-11T08:44:48.311Z,44.6021
2019-05-11T08:45:14.710Z,44.6021
2019-05-11T08:45:20.414Z,44.6021
2019-05-11T08:45:27.843Z,44.5762
2019-05-11T08:45:39.093Z,44.6036
2019-05-11T08:45:48.540Z,44.5655
2019-05-11T08:45:57.864Z,44.5945
2019-05-11T08:46:07.943Z,44.6448
2019-05-11T08:46:18.521Z,44.6113
2019-05-11T08:46:27.916Z,44.5899
2019-05-11T08:46:38.571Z,44.5808
2019-05-11T08:46:47.900Z,44.5808
2019-05-11T08:46:58.230Z,44.5487
2019-05-11T08:47:08.492Z,44.5975
2019-05-11T08:47:17.791Z,44.5624
2019-05-11T08:47:28.375Z,44.5792
2019-05-11T08:47:37.748Z,44.5808
2019-05-11T08:47:48.416Z,44.5701
2019-05-11T08:47:57.936Z,44.5853
2019-05-11T08:48:08.134Z,44.5487
2019-05-11T08:48:18.701Z,44.5991
2019-05-11T08:48:28.299Z,44.5533
2019-05-11T08:48:38.804Z,44.5808
2019-05-11T08:48:47.960Z,44.5945
2019-05-11T08:48:56.447Z,44.5609
2019-05-11T08:49:04.859Z,44.5792
2019-05-11T08:49:15.628Z,44.5701
2019-05-11T08:49:25.099Z,44.5701
2019-05-11T08:49:33.567Z,44.5609
2019-05-11T08:49:41.982Z,44.5747
2019-05-11T08:49:50.398Z,44.5945
2019-05-11T08:49:59.106Z,44.5472
2019-05-11T08:50:08.151Z,44.5396
2019-05-11T08:50:18.768Z,44.5655
2019-05-11T08:50:28.054Z,44.5289
2019-05-11T08:50:38.272Z,44.5212
2019-05-11T08:50:48.850Z,44.5014
2019-05-11T08:50:58.223Z,44.5258
2019-05-11T08:51:08.421Z,44.4923
2019-05-11T08:51:18.659Z,44.5167
2019-05-11T08:51:27.942Z,44.5212
2019-05-11T08:51:38.632Z,44.5243
2019-05-11T08:51:47.880Z,44.4526
2019-05-11T08:51:57.859Z,44.4785
2019-05-11T08:52:08.175Z,44.5151
2019-05-11T08:52:18.686Z,44.4831
2019-05-11T08:52:28.032Z,44.4938
2019-05-11T08:52:38.683Z,44.4739
2019-05-11T08:52:47.855Z,44.4739
2019-05-11T08:52:58.091Z,44.4434
2019-05-11T08:53:08.586Z,44.4694
2019-05-11T08:53:17.829Z,44.5060
2019-05-11T08:53:28.447Z,44.4602
2019-05-11T08:53:38.738Z,44.4739
2019-05-11T08:53:48.049Z,44.4526
2019-05-11T08:53:58.363Z,44.5029
2019-05-11T08:54:08.963Z,44.5060
2019-05-11T08:54:18.270Z,44.5289
2019-05-11T08:54:28.902Z,44.5762
2019-05-11T08:54:38.214Z,44.4846
2019-05-11T08:54:48.655Z,44.5121
2019-05-11T08:54:57.878Z,44.5350
2019-05-11T08:55:08.359Z,44.5533
2019-05-11T08:55:19.046Z,44.5304
2019-05-11T08:55:28.988Z,44.5106
2019-05-11T08:55:38.329Z,44.4709
2019-05-11T08:55:48.522Z,44.4709
2019-05-11T08:55:58.860Z,44.3793
2019-05-11T08:56:10.068Z,44.4114
2019-05-11T08:56:21.771Z,44.3061
2019-05-11T08:56:30.193Z,44.2649
2019-05-11T08:56:38.641Z,44.2145
2019-05-11T08:56:48.644Z,44.2222
2019-05-11T08:56:58.774Z,44.1230
2019-05-11T08:57:08.182Z,44.0955
2019-05-11T08:57:17.969Z,43.9994
2019-05-11T08:57:28.586Z,44.0070
2019-05-11T08:57:38.755Z,43.9216
2019-05-11T08:57:48.068Z,43.8254
2019-05-11T08:57:58.530Z,43.8010
2019-05-11T08:58:07.882Z,43.7369
2019-05-11T08:58:19.328Z,43.7278
2019-05-11T08:58:28.100Z,43.6652
2019-05-11T08:58:37.981Z,43.6194
2019-05-11T08:58:49.023Z,43.6286
2019-05-11T08:58:58.899Z,43.5462
2019-05-11T08:59:08.035Z,43.5584
2019-05-11T08:59:18.655Z,43.5584
2019-05-11T08:59:27.939Z,43.5355
2019-05-11T08:59:38.095Z,43.5096
2019-05-11T08:59:48.557Z,43.4775
2019-05-11T08:59:57.914Z,43.4272
2019-05-11T09:00:08.539Z,43.4546
2019-05-11T09:00:17.967Z,43.4531
2019-05-11T09:00:28.385Z,43.4577
2019-05-11T09:00:38.898Z,43.4302
2019-05-11T09:00:47.862Z,43.4440
2019-05-11T09:00:58.327Z,43.4089
2019-05-11T09:01:08.801Z,43.4180
2019-05-11T09:01:18.334Z,43.3768
2019-05-11T09:01:28.672Z,43.3494
2019-05-11T09:01:39.330Z,43.3753
2019-05-11T09:01:48.506Z,43.4211
2019-05-11T09:01:58.760Z,43.3860
2019-05-11T09:02:08.137Z,43.4684
2019-05-11T09:02:18.607Z,43.4119
2019-05-11T09:02:27.773Z,43.4211
2019-05-11T09:02:38.352Z,43.4440
2019-05-11T09:02:50.431Z,43.4440
2019-05-11T09:02:59.416Z,43.4821
2019-05-11T09:03:08.497Z,43.4806
2019-05-11T09:03:17.844Z,43.4913
2019-05-11T09:03:28.467Z,43.5737
2019-05-11T09:03:38.777Z,43.5355
2019-05-11T09:03:47.855Z,43.5126
2019-05-11T09:03:58.323Z,43.5096
2019-05-11T09:04:08.929Z,43.4958
2019-05-11T09:04:18.349Z,43.5462
2019-05-11T09:04:28.790Z,43.5080
2019-05-11T09:04:41.684Z,43.5187
2019-05-11T09:04:50.387Z,43.5187
2019-05-11T09:04:59.086Z,43.4958
2019-05-11T09:05:08.310Z,43.5355
2019-05-11T09:05:18.695Z,43.5187
2019-05-11T09:05:28.025Z,43.5172
2019-05-11T09:05:38.425Z,43.5538
2019-05-11T09:05:48.588Z,43.5813
2019-05-11T09:05:57.922Z,43.5538
2019-05-11T09:06:08.376Z,43.5187
2019-05-11T09:06:17.878Z,43.5554
2019-05-11T09:06:28.365Z,43.5767
2019-05-11T09:06:37.664Z,43.5584
2019-05-11T09:06:47.979Z,43.5676
2019-05-11T09:06:58.458Z,43.5676
2019-05-11T09:07:07.853Z,43.5904
2019-05-11T09:07:18.457Z,43.5813
2019-05-11T09:07:27.767Z,43.6179
2019-05-11T09:07:38.471Z,43.6042
2019-05-11T09:07:48.423Z,43.5920
2019-05-11T09:07:57.780Z,43.5538
2019-05-11T09:08:08.195Z,43.5538
2019-05-11T09:08:18.852Z,43.5767
2019-05-11T09:08:28.312Z,43.5767
2019-05-11T09:08:38.820Z,43.5904
2019-05-11T09:08:49.297Z,43.5767
2019-05-11T09:08:58.443Z,43.5538
2019-05-11T09:09:08.890Z,43.5782
2019-05-11T09:09:18.589Z,43.5554
2019-05-11T09:09:28.664Z,43.5767
2019-05-11T09:09:38.003Z,43.5676
2019-05-11T09:09:48.371Z,43.5904
2019-05-11T09:09:58.603Z,43.5782
2019-05-11T09:10:08.182Z,43.5554
2019-05-11T09:10:18.523Z,43.6042
2019-05-11T09:10:28.051Z,43.6042
2019-05-11T09:10:39.279Z,43.6179
2019-05-11T09:10:49.005Z,43.6408
2019-05-11T09:10:58.326Z,43.6362
2019-05-11T09:11:08.420Z,43.6271
2019-05-11T09:11:19.072Z,43.6377
2019-05-11T09:11:28.407Z,43.6377
2019-05-11T09:11:38.919Z,43.6500
2019-05-11T09:11:48.098Z,43.6271
2019-05-11T09:11:58.894Z,43.6637
2019-05-11T09:12:07.918Z,43.6744
2019-05-11T09:12:18.296Z,43.7018
2019-05-11T09:12:28.800Z,43.6606
2019-05-11T09:12:38.250Z,43.6500
2019-05-11T09:12:48.775Z,43.6606
2019-05-11T09:12:59.134Z,43.6973
2019-05-11T09:13:08.098Z,43.7201
2019-05-11T09:13:18.560Z,43.7201
2019-05-11T09:13:27.942Z,43.7430
2019-05-11T09:13:36.521Z,43.7095
2019-05-11T09:13:44.919Z,43.7476
2019-05-11T09:13:53.331Z,43.7705
2019-05-11T09:14:01.727Z,43.6973
2019-05-11T09:14:10.144Z,43.7339
2019-05-11T09:14:18.964Z,43.7339
2019-05-11T09:14:28.335Z,43.7476
2019-05-11T09:14:38.705Z,43.7797
2019-05-11T09:14:47.848Z,43.7797
2019-05-11T09:14:58.115Z,43.7568
2019-05-11T09:15:08.713Z,43.8056
2019-05-11T09:15:32.343Z,43.7827
2019-05-11T09:15:36.957Z,43.8422
2019-05-11T09:15:48.241Z,43.8437
2019-05-11T09:15:58.813Z,43.8300
2019-05-11T09:16:08.003Z,43.8529
2019-05-11T09:16:18.712Z,43.7964
2019-05-11T09:16:29.101Z,43.8056
2019-05-11T09:16:38.272Z,43.8056
2019-05-11T09:16:48.870Z,43.8437
2019-05-11T09:16:57.861Z,43.8529
2019-05-11T09:17:07.851Z,43.8529
2019-05-11T09:17:18.212Z,43.8529
2019-05-11T09:17:28.913Z,43.8529
2019-05-11T09:17:38.169Z,43.8788
2019-05-11T09:17:48.763Z,43.8163
2019-05-11T09:17:57.833Z,43.8651
2019-05-11T09:18:08.444Z,43.8529
2019-05-11T09:18:18.715Z,43.9017
2019-05-11T09:18:27.984Z,43.8758
2019-05-11T09:18:38.615Z,43.9017
2019-05-11T09:18:47.990Z,43.8758
2019-05-11T09:18:58.157Z,43.8422
2019-05-11T09:19:08.845Z,43.8666
2019-05-11T09:19:17.898Z,43.8666
2019-05-11T09:19:28.418Z,43.8788
2019-05-11T09:19:38.818Z,43.9063
2019-05-11T09:19:48.103Z,43.8788
2019-05-11T09:19:58.177Z,43.9155
2019-05-11T09:20:08.764Z,43.8926
2019-05-11T09:20:17.967Z,43.9246
2019-05-11T09:20:28.539Z,43.9246
2019-05-11T09:20:37.792Z,43.9384
2019-05-11T09:20:48.551Z,43.9750
2019-05-11T09:20:57.747Z,43.9628
2019-05-11T09:21:08.381Z,43.9475
2019-05-11T09:21:19.055Z,43.9612
2019-05-11T09:21:28.247Z,43.9719
2019-05-11T09:21:38.252Z,43.9750
2019-05-11T09:21:48.186Z,43.9902
2019-05-11T09:21:58.822Z,43.9628
2019-05-11T09:22:08.239Z,43.7186
2019-05-11T09:22:18.676Z,43.4073
2019-05-11T09:22:28.404Z,42.9908
2019-05-11T09:22:38.101Z,42.5483
2019-05-11T09:22:48.489Z,42.2034
2019-05-11T09:22:58.934Z,41.8509
2019-05-11T09:23:08.204Z,41.5229
2019-05-11T09:23:30.928Z,41.2940
2019-05-11T09:23:37.297Z,41.0513
2019-05-11T09:23:45.502Z,40.8453
2019-05-11T09:23:53.914Z,40.7797
2019-05-11T09:24:02.321Z,40.6805
2019-05-11T09:24:10.763Z,40.6760
2019-05-11T09:24:19.170Z,40.5920
2019-05-11T09:24:28.208Z,40.6104
2019-05-11T09:24:38.682Z,40.6165
2019-05-11T09:24:47.722Z,40.6714
2019-05-11T09:24:58.287Z,40.7538
2019-05-11T09:25:08.821Z,40.7889
2019-05-11T09:25:18.348Z,40.9415
2019-05-11T09:25:27.768Z,41.1185
2019-05-11T09:25:38.325Z,41.2604
2019-05-11T09:25:47.705Z,41.4679
2019-05-11T09:25:58.294Z,41.6449
2019-05-11T09:26:08.725Z,41.8112
2019-05-11T09:26:18.325Z,42.0706
2019-05-11T09:26:28.591Z,42.2278
2019-05-11T09:26:38.823Z,42.4933
2019-05-11T09:26:48.008Z,42.7039
2019-05-11T09:26:58.578Z,42.8733
2019-05-11T09:27:07.793Z,43.0594
2019-05-11T09:27:18.416Z,43.2242
2019-05-11T09:27:28.600Z,43.4028
2019-05-11T09:27:37.628Z,43.5721
2019-05-11T09:27:48.182Z,43.7232
2019-05-11T09:27:58.736Z,43.8331
2019-05-11T09:28:08.523Z,43.9811
2019-05-11T09:28:18.074Z,44.1184
2019-05-11T09:28:29.271Z,44.2008
2019-05-11T09:28:38.547Z,44.3564
2019-05-11T09:28:47.657Z,44.3961
2019-05-11T09:28:58.149Z,44.4785
2019-05-11T09:29:08.749Z,44.5991
2019-05-11T09:29:18.052Z,44.6540
2019-05-11T09:29:28.199Z,44.7211
2019-05-11T09:29:38.722Z,44.7684
2019-05-11T09:29:47.964Z,44.8142
2019-05-11T09:29:58.726Z,44.8508
2019-05-11T09:30:08.270Z,44.8859
2019-05-11T09:30:18.436Z,44.9332
2019-05-11T09:30:28.819Z,44.9241
2019-05-11T09:30:37.822Z,44.9363
2019-05-11T09:30:48.184Z,44.9729
2019-05-11T09:30:57.772Z,44.9821
2019-05-11T09:31:08.446Z,45.0202
2019-05-11T09:31:18.796Z,45.0187
2019-05-11T09:31:27.961Z,45.0828
2019-05-11T09:31:38.153Z,45.0156
2019-05-11T09:31:48.722Z,45.0568
2019-05-11T09:31:58.312Z,45.0828
2019-05-11T09:32:08.798Z,45.0294
2019-05-11T09:32:17.977Z,45.1026
2019-05-11T09:32:28.503Z,45.0690
2019-05-11T09:32:38.481Z,45.1057
2019-05-11T09:32:47.778Z,45.0919
2019-05-11T09:32:58.138Z,45.1057
2019-05-11T09:33:08.610Z,45.0294
2019-05-11T09:33:20.499Z,45.0568
2019-05-11T09:33:29.130Z,45.0843
2019-05-11T09:33:38.570Z,45.0935
2019-05-11T09:33:47.984Z,45.0843
2019-05-11T09:33:58.468Z,45.0706
2019-05-11T09:34:09.006Z,45.1072
2019-05-11T09:34:18.221Z,45.0965
2019-05-11T09:34:28.778Z,45.0935
2019-05-11T09:34:37.816Z,45.1072
2019-05-11T09:34:48.527Z,45.1469
2019-05-11T09:34:57.985Z,45.0736
2019-05-11T09:35:08.354Z,45.1347
2019-05-11T09:35:18.958Z,45.0477
2019-05-11T09:35:29.179Z,45.1438
2019-05-11T09:35:47.616Z,45.0599
2019-05-11T09:35:53.517Z,45.1209
2019-05-11T09:36:02.085Z,45.1347
2019-05-11T09:36:10.551Z,45.1347
2019-05-11T09:36:18.997Z,45.1469
2019-05-11T09:36:28.561Z,45.1438
2019-05-11T09:36:38.900Z,45.1606
2019-05-11T09:36:47.983Z,45.0965
2019-05-11T09:36:58.676Z,45.1606
2019-05-11T09:37:07.957Z,45.1484
2019-05-11T09:37:18.403Z,45.1209
2019-05-11T09:37:27.734Z,45.1240
2019-05-11T09:37:38.062Z,45.1240
2019-05-11T09:37:48.443Z,45.1484
2019-05-11T09:37:58.755Z,45.1850
2019-05-11T09:38:08.027Z,45.1347
2019-05-11T09:38:18.490Z,45.1743
2019-05-11T09:38:27.738Z,45.1484
2019-05-11T09:38:38.282Z,45.1759
2019-05-11T09:38:48.958Z,45.1347
2019-05-11T09:38:58.232Z,45.1743
2019-05-11T09:39:08.410Z,45.1713
2019-05-11T09:39:17.741Z,45.1240
2019-05-11T09:39:28.080Z,45.1240
2019-05-11T09:39:38.333Z,45.1850
2019-05-11T09:39:47.878Z,45.1743
2019-05-11T09:39:58.360Z,45.1835
2019-05-11T09:40:07.840Z,45.1942
2019-05-11T09:40:18.281Z,45.1606
2019-05-11T09:40:28.383Z,45.1759
2019-05-11T09:40:38.613Z,45.1743
2019-05-11T09:40:47.972Z,45.2110
2019-05-11T09:40:58.516Z,45.1713
2019-05-11T09:41:08.979Z,45.1606
2019-05-11T09:41:20.319Z,45.1606
2019-05-11T09:41:29.043Z,45.1743
2019-05-11T09:41:38.270Z,45.1759
2019-05-11T09:41:48.835Z,45.1835
2019-05-11T09:41:58.430Z,45.2216
2019-05-11T09:42:07.712Z,45.2308
2019-05-11T09:42:17.933Z,45.1972
2019-05-11T09:42:28.487Z,45.2216
2019-05-11T09:42:38.832Z,45.2110
2019-05-11T09:42:48.032Z,45.2110
2019-05-11T09:42:58.494Z,45.1850
2019-05-11T09:43:08.514Z,45.2247
2019-05-11T09:43:17.844Z,45.1606
2019-05-11T09:43:28.348Z,45.2354
2019-05-11T09:43:37.728Z,45.2110
2019-05-11T09:43:48.240Z,45.1972
2019-05-11T09:43:58.731Z,45.1148
2019-05-11T09:44:09.040Z,45.1759
2019-05-11T09:44:18.220Z,45.1789
2019-05-11T09:44:28.872Z,45.1255
2019-05-11T09:44:38.112Z,45.1759
2019-05-11T09:44:48.496Z,45.1759
2019-05-11T09:44:57.791Z,45.1530
2019-05-11T09:45:08.044Z,45.1423
2019-05-11T09:45:18.673Z,45.1148
2019-05-11T09:45:27.863Z,45.1148
2019-05-11T09:45:47.440Z,45.1392
2019-05-11T09:45:51.893Z,45.0935
2019-05-11T09:46:00.624Z,45.0889
2019-05-11T09:46:09.031Z,45.1667
2019-05-11T09:46:18.843Z,45.1514
2019-05-11T09:46:27.965Z,45.1652
2019-05-11T09:46:38.424Z,45.1255
2019-05-11T09:46:47.801Z,45.1286
2019-05-11T09:46:59.953Z,45.0797
2019-05-11T09:47:10.793Z,45.1530
2019-05-11T09:47:19.233Z,45.1423
2019-05-11T09:47:28.046Z,45.1530
2019-05-11T09:47:38.597Z,45.1652
2019-05-11T09:47:47.862Z,45.1926
2019-05-11T09:47:58.196Z,45.1286
2019-05-11T09:48:08.601Z,45.1392
2019-05-11T09:48:17.969Z,45.1652
2019-05-11T09:48:28.415Z,45.1652
2019-05-11T09:48:37.844Z,45.1026
2019-05-11T09:48:48.308Z,45.1667
2019-05-11T09:48:58.992Z,45.1530
2019-05-11T09:49:08.163Z,45.2033
2019-05-11T09:49:18.498Z,45.1530
2019-05-11T09:49:43.430Z,45.1652
2019-05-11T09:49:47.522Z,45.1423
2019-05-11T09:49:58.031Z,45.1575
2019-05-11T09:50:08.548Z,45.1896
2019-05-11T09:50:17.895Z,45.1530
2019-05-11T09:50:28.389Z,45.1881
2019-05-11T09:50:38.785Z,45.1804
2019-05-11T09:50:48.112Z,45.1698
2019-05-11T09:50:58.680Z,45.2262
2019-05-11T09:51:07.836Z,45.2018
2019-05-11T09:51:18.467Z,45.1926
2019-05-11T09:51:28.770Z,45.2033
2019-05-11T09:51:38.005Z,45.1560
2019-05-11T09:51:48.272Z,45.2033
2019-05-11T09:51:58.921Z,45.2155
2019-05-11T09:52:07.901Z,45.2033
2019-05-11T09:52:18.328Z,45.2018
2019-05-11T09:52:27.610Z,45.2155
2019-05-11T09:52:38.260Z,45.2247
2019-05-11T09:52:48.949Z,45.2262
2019-05-11T09:52:58.193Z,45.2613
2019-05-11T09:53:08.551Z,45.2262
2019-05-11T09:53:17.690Z,45.2155
2019-05-11T09:53:28.348Z,45.2018
2019-05-11T09:53:38.842Z,45.2293
2019-05-11T09:53:48.229Z,45.2171
2019-05-11T09:53:58.731Z,45.2537
2019-05-11T09:54:08.006Z,45.2522
2019-05-11T09:54:18.240Z,45.2262
2019-05-11T09:54:28.951Z,45.2262
2019-05-11T09:54:38.393Z,45.2399
2019-05-11T09:54:48.737Z,45.2262
2019-05-11T09:54:57.996Z,45.2522
2019-05-11T09:55:08.556Z,45.2262
2019-05-11T09:55:19.050Z,45.2522
2019-05-11T09:55:28.323Z,45.2155
2019-05-11T09:55:38.880Z,45.2613
2019-05-11T09:55:48.111Z,45.2720
2019-05-11T09:55:58.674Z,45.2247
2019-05-11T09:56:08.091Z,45.2399
2019-05-11T09:56:18.423Z,45.2399
2019-05-11T09:56:28.717Z,45.2399
2019-05-11T09:56:38.217Z,45.2384
2019-05-11T09:56:48.616Z,45.2399
2019-05-11T09:56:57.870Z,45.2522
2019-05-11T09:57:08.322Z,45.2995
2019-05-11T09:57:18.477Z,45.3132
2019-05-11T09:57:27.669Z,45.2384
2019-05-11T09:57:38.217Z,45.0141